sensor_id;sensor_type;location;lat;lon;timestamp;temperature;humidity
42037;DHT22;30340;52.004;5.908;2023-07-02T00:00:59;19.10;81.90
42037;DHT22;30340;52.004;5.908;2023-07-02T00:03:24;19.10;82.40
42037;DHT22;30340;52.004;5.908;2023-07-02T00:05:50;19.00;82.60
42037;DHT22;30340;52.004;5.908;2023-07-02T00:08:18;19.00;82.70
42037;DHT22;30340;52.004;5.908;2023-07-02T00:10:44;19.10;82.80
42037;DHT22;30340;52.004;5.908;2023-07-02T00:13:09;19.00;82.90
42037;DHT22;30340;52.004;5.908;2023-07-02T00:15:35;19.00;83.20
42037;DHT22;30340;52.004;5.908;2023-07-02T00:18:01;19.00;83.50
42037;DHT22;30340;52.004;5.908;2023-07-02T00:20:26;18.90;83.60
42037;DHT22;30340;52.004;5.908;2023-07-02T00:22:52;18.90;83.70
42037;DHT22;30340;52.004;5.908;2023-07-02T00:25:20;19.00;83.70
42037;DHT22;30340;52.004;5.908;2023-07-02T00:27:45;19.00;83.80
42037;DHT22;30340;52.004;5.908;2023-07-02T00:30:11;19.00;83.90
42037;DHT22;30340;52.004;5.908;2023-07-02T00:32:37;19.00;84.10
42037;DHT22;30340;52.004;5.908;2023-07-02T00:35:03;18.90;84.10
42037;DHT22;30340;52.004;5.908;2023-07-02T00:37:28;19.00;84.20
42037;DHT22;30340;52.004;5.908;2023-07-02T00:39:54;18.90;84.20
42037;DHT22;30340;52.004;5.908;2023-07-02T00:42:19;19.00;84.30
42037;DHT22;30340;52.004;5.908;2023-07-02T00:44:45;18.90;84.40
42037;DHT22;30340;52.004;5.908;2023-07-02T00:47:11;18.90;84.60
42037;DHT22;30340;52.004;5.908;2023-07-02T00:49:39;18.90;84.50
42037;DHT22;30340;52.004;5.908;2023-07-02T00:52:05;18.80;84.30
42037;DHT22;30340;52.004;5.908;2023-07-02T00:54:31;18.70;83.90
42037;DHT22;30340;52.004;5.908;2023-07-02T00:56:57;18.70;83.70
42037;DHT22;30340;52.004;5.908;2023-07-02T00:59:28;18.70;83.60
42037;DHT22;30340;52.004;5.908;2023-07-02T01:01:55;18.50;83.40
42037;DHT22;30340;52.004;5.908;2023-07-02T01:04:22;18.50;83.30
42037;DHT22;30340;52.004;5.908;2023-07-02T01:06:53;18.40;83.30
42037;DHT22;30340;52.004;5.908;2023-07-02T01:09:23;18.40;83.40
42037;DHT22;30340;52.004;5.908;2023-07-02T01:11:59;18.30;83.70
42037;DHT22;30340;52.004;5.908;2023-07-02T01:14:49;18.30;83.60
42037;DHT22;30340;52.004;5.908;2023-07-02T01:17:17;18.20;83.50
42037;DHT22;30340;52.004;5.908;2023-07-02T01:22:24;18.10;83.40
42037;DHT22;30340;52.004;5.908;2023-07-02T01:24:51;18.00;83.40
42037;DHT22;30340;52.004;5.908;2023-07-02T01:27:17;18.00;83.50
42037;DHT22;30340;52.004;5.908;2023-07-02T01:29:43;17.90;83.60
42037;DHT22;30340;52.004;5.908;2023-07-02T01:32:10;17.90;83.60
42037;DHT22;30340;52.004;5.908;2023-07-02T01:34:36;17.90;83.60
42037;DHT22;30340;52.004;5.908;2023-07-02T01:37:03;17.80;83.70
42037;DHT22;30340;52.004;5.908;2023-07-02T01:39:29;17.80;83.80
42037;DHT22;30340;52.004;5.908;2023-07-02T01:42:06;17.80;83.90
42037;DHT22;30340;52.004;5.908;2023-07-02T01:44:32;17.70;83.80
42037;DHT22;30340;52.004;5.908;2023-07-02T01:46:57;17.70;83.80
42037;DHT22;30340;52.004;5.908;2023-07-02T01:49:24;17.60;83.80
42037;DHT22;30340;52.004;5.908;2023-07-02T01:51:54;17.60;83.80
42037;DHT22;30340;52.004;5.908;2023-07-02T01:54:21;17.60;83.80
42037;DHT22;30340;52.004;5.908;2023-07-02T01:56:47;17.50;83.60
42037;DHT22;30340;52.004;5.908;2023-07-02T01:59:14;17.50;83.70
42037;DHT22;30340;52.004;5.908;2023-07-02T02:01:40;17.40;83.50
42037;DHT22;30340;52.004;5.908;2023-07-02T02:04:06;17.40;83.50
42037;DHT22;30340;52.004;5.908;2023-07-02T02:06:32;17.30;83.50
42037;DHT22;30340;52.004;5.908;2023-07-02T02:08:58;17.30;83.60
42037;DHT22;30340;52.004;5.908;2023-07-02T02:11:24;17.30;83.70
42037;DHT22;30340;52.004;5.908;2023-07-02T02:13:50;17.20;83.70
42037;DHT22;30340;52.004;5.908;2023-07-02T02:16:15;17.20;83.70
42037;DHT22;30340;52.004;5.908;2023-07-02T02:18:41;17.10;83.80
42037;DHT22;30340;52.004;5.908;2023-07-02T02:21:06;17.10;83.90
42037;DHT22;30340;52.004;5.908;2023-07-02T02:23:32;17.00;83.90
42037;DHT22;30340;52.004;5.908;2023-07-02T02:25:57;16.90;83.90
42037;DHT22;30340;52.004;5.908;2023-07-02T02:28:23;16.90;83.90
42037;DHT22;30340;52.004;5.908;2023-07-02T02:30:49;16.90;84.00
42037;DHT22;30340;52.004;5.908;2023-07-02T02:33:14;16.90;84.10
42037;DHT22;30340;52.004;5.908;2023-07-02T02:35:40;16.90;84.20
42037;DHT22;30340;52.004;5.908;2023-07-02T02:38:05;16.80;84.30
42037;DHT22;30340;52.004;5.908;2023-07-02T02:40:31;16.80;84.30
42037;DHT22;30340;52.004;5.908;2023-07-02T02:42:56;16.70;84.30
42037;DHT22;30340;52.004;5.908;2023-07-02T02:45:22;16.70;84.40
42037;DHT22;30340;52.004;5.908;2023-07-02T02:47:47;16.70;85.00
42037;DHT22;30340;52.004;5.908;2023-07-02T02:50:13;16.60;84.30
42037;DHT22;30340;52.004;5.908;2023-07-02T02:52:39;16.60;84.50
42037;DHT22;30340;52.004;5.908;2023-07-02T02:55:06;16.60;84.50
42037;DHT22;30340;52.004;5.908;2023-07-02T02:57:32;16.60;84.50
42037;DHT22;30340;52.004;5.908;2023-07-02T02:59:58;16.60;84.50
42037;DHT22;30340;52.004;5.908;2023-07-02T03:02:24;16.60;84.50
42037;DHT22;30340;52.004;5.908;2023-07-02T03:04:49;16.60;84.50
42037;DHT22;30340;52.004;5.908;2023-07-02T03:07:15;16.60;84.40
42037;DHT22;30340;52.004;5.908;2023-07-02T03:09:41;16.60;84.30
42037;DHT22;30340;52.004;5.908;2023-07-02T03:12:07;16.60;84.10
42037;DHT22;30340;52.004;5.908;2023-07-02T03:14:32;16.60;83.90
42037;DHT22;30340;52.004;5.908;2023-07-02T03:16:58;16.60;83.90
42037;DHT22;30340;52.004;5.908;2023-07-02T03:19:24;16.60;83.60
42037;DHT22;30340;52.004;5.908;2023-07-02T03:21:50;16.70;83.60
42037;DHT22;30340;52.004;5.908;2023-07-02T03:24:15;16.60;83.40
42037;DHT22;30340;52.004;5.908;2023-07-02T03:26:42;16.60;83.40
42037;DHT22;30340;52.004;5.908;2023-07-02T03:29:08;16.70;83.40
42037;DHT22;30340;52.004;5.908;2023-07-02T03:31:34;16.60;83.30
42037;DHT22;30340;52.004;5.908;2023-07-02T03:34:09;16.70;83.30
42037;DHT22;30340;52.004;5.908;2023-07-02T03:36:38;16.70;83.20
42037;DHT22;30340;52.004;5.908;2023-07-02T03:39:04;16.70;83.20
42037;DHT22;30340;52.004;5.908;2023-07-02T03:41:30;16.70;83.20
42037;DHT22;30340;52.004;5.908;2023-07-02T03:43:55;16.70;83.00
42037;DHT22;30340;52.004;5.908;2023-07-02T03:46:21;16.70;82.90
42037;DHT22;30340;52.004;5.908;2023-07-02T03:48:47;16.70;82.90
42037;DHT22;30340;52.004;5.908;2023-07-02T03:51:12;16.70;82.80
42037;DHT22;30340;52.004;5.908;2023-07-02T03:53:40;16.60;82.90
42037;DHT22;30340;52.004;5.908;2023-07-02T03:56:05;16.60;82.90
42037;DHT22;30340;52.004;5.908;2023-07-02T03:58:31;16.70;82.90
42037;DHT22;30340;52.004;5.908;2023-07-02T04:00:56;16.70;82.90
42037;DHT22;30340;52.004;5.908;2023-07-02T04:03:22;16.60;82.70
42037;DHT22;30340;52.004;5.908;2023-07-02T04:05:47;16.60;83.40
42037;DHT22;30340;52.004;5.908;2023-07-02T04:08:14;16.60;82.70
42037;DHT22;30340;52.004;5.908;2023-07-02T04:10:40;16.60;82.60
42037;DHT22;30340;52.004;5.908;2023-07-02T04:13:06;16.60;82.50
42037;DHT22;30340;52.004;5.908;2023-07-02T04:15:31;16.50;82.30
42037;DHT22;30340;52.004;5.908;2023-07-02T04:17:57;16.60;82.20
42037;DHT22;30340;52.004;5.908;2023-07-02T04:20:23;16.60;82.20
42037;DHT22;30340;52.004;5.908;2023-07-02T04:22:48;16.60;82.20
42037;DHT22;30340;52.004;5.908;2023-07-02T04:25:14;16.50;82.20
42037;DHT22;30340;52.004;5.908;2023-07-02T04:27:44;16.60;82.00
42037;DHT22;30340;52.004;5.908;2023-07-02T04:30:10;16.60;81.90
42037;DHT22;30340;52.004;5.908;2023-07-02T04:32:37;16.60;81.70
42037;DHT22;30340;52.004;5.908;2023-07-02T04:35:07;16.60;81.60
42037;DHT22;30340;52.004;5.908;2023-07-02T04:37:33;16.60;81.30
42037;DHT22;30340;52.004;5.908;2023-07-02T04:39:59;16.70;81.40
42037;DHT22;30340;52.004;5.908;2023-07-02T04:42:28;16.70;81.10
42037;DHT22;30340;52.004;5.908;2023-07-02T04:44:57;16.70;81.00
42037;DHT22;30340;52.004;5.908;2023-07-02T04:47:28;16.70;80.70
42037;DHT22;30340;52.004;5.908;2023-07-02T04:49:53;16.70;80.40
42037;DHT22;30340;52.004;5.908;2023-07-02T04:52:19;16.80;80.20
42037;DHT22;30340;52.004;5.908;2023-07-02T04:54:45;16.80;79.80
42037;DHT22;30340;52.004;5.908;2023-07-02T04:57:10;16.90;79.50
42037;DHT22;30340;52.004;5.908;2023-07-02T04:59:36;17.20;78.90
42037;DHT22;30340;52.004;5.908;2023-07-02T05:02:01;17.70;77.60
42037;DHT22;30340;52.004;5.908;2023-07-02T05:04:27;18.00;76.30
42037;DHT22;30340;52.004;5.908;2023-07-02T05:06:53;18.30;75.10
42037;DHT22;30340;52.004;5.908;2023-07-02T05:09:18;18.60;73.90
42037;DHT22;30340;52.004;5.908;2023-07-02T05:11:44;18.90;72.90
42037;DHT22;30340;52.004;5.908;2023-07-02T05:14:10;19.20;71.80
42037;DHT22;30340;52.004;5.908;2023-07-02T05:16:35;19.30;70.90
42037;DHT22;30340;52.004;5.908;2023-07-02T05:19:01;19.50;70.40
42037;DHT22;30340;52.004;5.908;2023-07-02T05:21:26;19.70;69.70
42037;DHT22;30340;52.004;5.908;2023-07-02T05:23:52;19.90;69.00
42037;DHT22;30340;52.004;5.908;2023-07-02T05:26:17;19.90;68.50
42037;DHT22;30340;52.004;5.908;2023-07-02T05:28:43;20.00;68.20
42037;DHT22;30340;52.004;5.908;2023-07-02T05:31:09;20.10;67.70
42037;DHT22;30340;52.004;5.908;2023-07-02T05:33:35;19.70;68.30
42037;DHT22;30340;52.004;5.908;2023-07-02T05:36:01;19.40;69.10
42037;DHT22;30340;52.004;5.908;2023-07-02T05:38:26;19.20;69.70
42037;DHT22;30340;52.004;5.908;2023-07-02T05:40:52;19.10;70.10
42037;DHT22;30340;52.004;5.908;2023-07-02T05:43:18;19.00;70.20
42037;DHT22;30340;52.004;5.908;2023-07-02T05:45:43;19.00;70.30
42037;DHT22;30340;52.004;5.908;2023-07-02T05:48:09;19.00;70.30
42037;DHT22;30340;52.004;5.908;2023-07-02T05:50:35;19.10;69.70
42037;DHT22;30340;52.004;5.908;2023-07-02T05:53:00;19.00;69.50
42037;DHT22;30340;52.004;5.908;2023-07-02T05:55:26;19.20;69.40
42037;DHT22;30340;52.004;5.908;2023-07-02T05:57:51;19.10;69.00
42037;DHT22;30340;52.004;5.908;2023-07-02T06:00:17;19.00;68.90
42037;DHT22;30340;52.004;5.908;2023-07-02T06:02:45;19.00;69.10
42037;DHT22;30340;52.004;5.908;2023-07-02T06:05:11;19.20;69.00
42037;DHT22;30340;52.004;5.908;2023-07-02T06:07:37;19.30;68.50
42037;DHT22;30340;52.004;5.908;2023-07-02T06:10:02;19.50;68.40
42037;DHT22;30340;52.004;5.908;2023-07-02T06:12:29;19.40;67.70
42037;DHT22;30340;52.004;5.908;2023-07-02T06:14:54;19.50;67.90
42037;DHT22;30340;52.004;5.908;2023-07-02T06:17:20;19.40;67.70
42037;DHT22;30340;52.004;5.908;2023-07-02T06:19:48;19.50;67.80
42037;DHT22;30340;52.004;5.908;2023-07-02T06:22:13;19.70;67.70
42037;DHT22;30340;52.004;5.908;2023-07-02T06:24:39;19.90;67.40
42037;DHT22;30340;52.004;5.908;2023-07-02T06:27:04;19.90;66.50
42037;DHT22;30340;52.004;5.908;2023-07-02T06:29:30;19.80;66.00
42037;DHT22;30340;52.004;5.908;2023-07-02T06:31:55;19.70;66.00
42037;DHT22;30340;52.004;5.908;2023-07-02T06:34:21;19.60;66.00
42037;DHT22;30340;52.004;5.908;2023-07-02T06:36:48;19.70;66.40
42037;DHT22;30340;52.004;5.908;2023-07-02T06:39:13;19.70;66.10
42037;DHT22;30340;52.004;5.908;2023-07-02T06:41:39;19.70;66.50
42037;DHT22;30340;52.004;5.908;2023-07-02T06:44:05;19.70;65.90
42037;DHT22;30340;52.004;5.908;2023-07-02T06:46:30;19.60;66.00
42037;DHT22;30340;52.004;5.908;2023-07-02T06:48:56;19.60;65.60
42037;DHT22;30340;52.004;5.908;2023-07-02T06:51:22;19.60;65.90
42037;DHT22;30340;52.004;5.908;2023-07-02T06:53:48;19.60;65.70
42037;DHT22;30340;52.004;5.908;2023-07-02T06:56:14;19.60;65.70
42037;DHT22;30340;52.004;5.908;2023-07-02T06:58:42;19.70;65.90
42037;DHT22;30340;52.004;5.908;2023-07-02T07:01:08;19.70;65.80
42037;DHT22;30340;52.004;5.908;2023-07-02T07:03:35;19.60;65.50
42037;DHT22;30340;52.004;5.908;2023-07-02T07:06:00;19.60;65.20
42037;DHT22;30340;52.004;5.908;2023-07-02T07:08:26;19.60;65.10
42037;DHT22;30340;52.004;5.908;2023-07-02T07:10:51;19.70;65.00
42037;DHT22;30340;52.004;5.908;2023-07-02T07:13:17;19.70;64.60
42037;DHT22;30340;52.004;5.908;2023-07-02T07:15:43;19.70;64.60
42037;DHT22;30340;52.004;5.908;2023-07-02T07:18:09;19.70;64.40
42037;DHT22;30340;52.004;5.908;2023-07-02T07:20:34;19.60;64.30
42037;DHT22;30340;52.004;5.908;2023-07-02T07:23:02;19.70;64.50
42037;DHT22;30340;52.004;5.908;2023-07-02T07:25:28;19.70;64.10
42037;DHT22;30340;52.004;5.908;2023-07-02T07:27:54;19.70;63.90
42037;DHT22;30340;52.004;5.908;2023-07-02T07:30:20;19.90;63.50
42037;DHT22;30340;52.004;5.908;2023-07-02T07:32:50;20.00;63.60
42037;DHT22;30340;52.004;5.908;2023-07-02T07:35:16;20.30;63.30
42037;DHT22;30340;52.004;5.908;2023-07-02T07:37:42;20.40;63.20
42037;DHT22;30340;52.004;5.908;2023-07-02T07:40:08;20.60;62.60
42037;DHT22;30340;52.004;5.908;2023-07-02T07:42:34;20.70;62.10
42037;DHT22;30340;52.004;5.908;2023-07-02T07:44:59;20.90;62.00
42037;DHT22;30340;52.004;5.908;2023-07-02T07:47:25;20.90;61.90
42037;DHT22;30340;52.004;5.908;2023-07-02T07:49:50;21.00;61.90
42037;DHT22;30340;52.004;5.908;2023-07-02T07:52:16;20.90;61.00
42037;DHT22;30340;52.004;5.908;2023-07-02T07:54:41;20.80;60.90
42037;DHT22;30340;52.004;5.908;2023-07-02T07:57:07;20.90;61.00
42037;DHT22;30340;52.004;5.908;2023-07-02T07:59:33;21.10;61.40
42037;DHT22;30340;52.004;5.908;2023-07-02T08:01:58;21.10;61.00
42037;DHT22;30340;52.004;5.908;2023-07-02T08:04:24;21.20;60.50
42037;DHT22;30340;52.004;5.908;2023-07-02T08:06:50;21.40;60.30
42037;DHT22;30340;52.004;5.908;2023-07-02T08:09:15;21.50;60.10
42037;DHT22;30340;52.004;5.908;2023-07-02T08:11:41;21.60;59.60
42037;DHT22;30340;52.004;5.908;2023-07-02T08:14:06;21.60;58.60
42037;DHT22;30340;52.004;5.908;2023-07-02T08:16:32;21.60;58.50
42037;DHT22;30340;52.004;5.908;2023-07-02T08:18:58;21.70;58.40
42037;DHT22;30340;52.004;5.908;2023-07-02T08:21:23;21.80;58.60
42037;DHT22;30340;52.004;5.908;2023-07-02T08:23:49;21.90;57.70
42037;DHT22;30340;52.004;5.908;2023-07-02T08:26:14;22.00;57.20
42037;DHT22;30340;52.004;5.908;2023-07-02T08:28:40;22.00;56.60
42037;DHT22;30340;52.004;5.908;2023-07-02T08:31:06;22.00;56.20
42037;DHT22;30340;52.004;5.908;2023-07-02T08:33:31;22.00;55.70
42037;DHT22;30340;52.004;5.908;2023-07-02T08:35:57;22.00;53.90
42037;DHT22;30340;52.004;5.908;2023-07-02T08:38:23;21.80;54.20
42037;DHT22;30340;52.004;5.908;2023-07-02T08:40:49;21.80;54.20
42037;DHT22;30340;52.004;5.908;2023-07-02T08:43:15;21.70;54.20
42037;DHT22;30340;52.004;5.908;2023-07-02T08:45:44;21.40;53.80
42037;DHT22;30340;52.004;5.908;2023-07-02T08:48:13;21.20;53.80
42037;DHT22;30340;52.004;5.908;2023-07-02T08:50:39;21.20;53.50
42037;DHT22;30340;52.004;5.908;2023-07-02T08:53:04;21.30;53.70
42037;DHT22;30340;52.004;5.908;2023-07-02T08:55:30;21.30;53.10
42037;DHT22;30340;52.004;5.908;2023-07-02T08:57:56;21.40;53.80
42037;DHT22;30340;52.004;5.908;2023-07-02T09:00:26;21.50;53.50
42037;DHT22;30340;52.004;5.908;2023-07-02T09:02:51;21.60;53.50
42037;DHT22;30340;52.004;5.908;2023-07-02T09:05:17;21.40;53.10
42037;DHT22;30340;52.004;5.908;2023-07-02T09:07:44;21.50;54.00
42037;DHT22;30340;52.004;5.908;2023-07-02T09:10:11;21.60;54.00
42037;DHT22;30340;52.004;5.908;2023-07-02T09:12:37;21.70;54.10
42037;DHT22;30340;52.004;5.908;2023-07-02T09:15:05;21.60;53.20
42037;DHT22;30340;52.004;5.908;2023-07-02T09:17:37;21.40;52.60
42037;DHT22;30340;52.004;5.908;2023-07-02T09:20:05;21.10;53.20
42037;DHT22;30340;52.004;5.908;2023-07-02T09:22:33;21.00;53.80
42037;DHT22;30340;52.004;5.908;2023-07-02T09:25:01;21.20;53.70
42037;DHT22;30340;52.004;5.908;2023-07-02T09:27:37;21.40;53.70
42037;DHT22;30340;52.004;5.908;2023-07-02T09:30:14;21.60;53.10
42037;DHT22;30340;52.004;5.908;2023-07-02T09:32:42;21.60;52.10
42037;DHT22;30340;52.004;5.908;2023-07-02T09:35:08;21.50;51.50
42037;DHT22;30340;52.004;5.908;2023-07-02T09:37:33;21.60;51.80
42037;DHT22;30340;52.004;5.908;2023-07-02T09:40:00;21.80;51.90
42037;DHT22;30340;52.004;5.908;2023-07-02T09:42:27;21.90;50.90
42037;DHT22;30340;52.004;5.908;2023-07-02T09:44:55;21.80;49.70
42037;DHT22;30340;52.004;5.908;2023-07-02T09:47:21;21.80;49.40
42037;DHT22;30340;52.004;5.908;2023-07-02T09:50:04;21.90;48.60
42037;DHT22;30340;52.004;5.908;2023-07-02T09:52:32;22.10;48.80
42037;DHT22;30340;52.004;5.908;2023-07-02T09:54:58;22.20;48.20
42037;DHT22;30340;52.004;5.908;2023-07-02T09:57:24;22.30;47.10
42037;DHT22;30340;52.004;5.908;2023-07-02T09:59:50;22.20;47.10
42037;DHT22;30340;52.004;5.908;2023-07-02T10:02:16;22.20;47.10
42037;DHT22;30340;52.004;5.908;2023-07-02T10:04:46;22.20;47.30
42037;DHT22;30340;52.004;5.908;2023-07-02T10:07:13;22.30;47.60
42037;DHT22;30340;52.004;5.908;2023-07-02T10:09:45;22.30;47.00
42037;DHT22;30340;52.004;5.908;2023-07-02T10:12:23;22.40;47.40
42037;DHT22;30340;52.004;5.908;2023-07-02T10:14:51;22.50;47.50
42037;DHT22;30340;52.004;5.908;2023-07-02T10:17:53;22.40;47.00
42037;DHT22;30340;52.004;5.908;2023-07-02T10:20:37;22.30;47.30
42037;DHT22;30340;52.004;5.908;2023-07-02T10:23:05;22.20;46.90
42037;DHT22;30340;52.004;5.908;2023-07-02T10:25:33;22.30;46.90
42037;DHT22;30340;52.004;5.908;2023-07-02T10:28:00;22.20;47.00
42037;DHT22;30340;52.004;5.908;2023-07-02T10:30:36;22.20;47.30
42037;DHT22;30340;52.004;5.908;2023-07-02T10:33:16;22.20;47.20
42037;DHT22;30340;52.004;5.908;2023-07-02T10:35:44;22.20;47.00
42037;DHT22;30340;52.004;5.908;2023-07-02T10:38:19;22.20;46.80
42037;DHT22;30340;52.004;5.908;2023-07-02T10:40:45;22.30;46.60
42037;DHT22;30340;52.004;5.908;2023-07-02T10:43:11;22.40;45.90
42037;DHT22;30340;52.004;5.908;2023-07-02T10:45:36;22.50;46.20
42037;DHT22;30340;52.004;5.908;2023-07-02T10:48:03;22.40;45.90
42037;DHT22;30340;52.004;5.908;2023-07-02T10:50:31;22.30;45.60
42037;DHT22;30340;52.004;5.908;2023-07-02T10:52:57;22.20;45.20
42037;DHT22;30340;52.004;5.908;2023-07-02T10:55:24;22.10;45.90
42037;DHT22;30340;52.004;5.908;2023-07-02T10:58:01;22.10;45.60
42037;DHT22;30340;52.004;5.908;2023-07-02T11:00:27;22.10;45.40
42037;DHT22;30340;52.004;5.908;2023-07-02T11:02:53;22.10;45.60
42037;DHT22;30340;52.004;5.908;2023-07-02T11:05:18;22.20;45.40
42037;DHT22;30340;52.004;5.908;2023-07-02T11:07:44;22.20;45.60
42037;DHT22;30340;52.004;5.908;2023-07-02T11:10:17;22.30;45.70
42037;DHT22;30340;52.004;5.908;2023-07-02T11:12:43;22.30;45.40
42037;DHT22;30340;52.004;5.908;2023-07-02T11:15:13;22.30;45.80
42037;DHT22;30340;52.004;5.908;2023-07-02T11:17:40;22.30;45.10
42037;DHT22;30340;52.004;5.908;2023-07-02T11:20:08;22.30;45.00
42037;DHT22;30340;52.004;5.908;2023-07-02T11:22:35;22.30;44.80
42037;DHT22;30340;52.004;5.908;2023-07-02T11:25:16;22.30;44.60
42037;DHT22;30340;52.004;5.908;2023-07-02T11:27:42;22.20;44.70
42037;DHT22;30340;52.004;5.908;2023-07-02T11:30:08;22.20;44.90
42037;DHT22;30340;52.004;5.908;2023-07-02T11:32:51;22.30;44.70
42037;DHT22;30340;52.004;5.908;2023-07-02T11:35:17;22.50;44.30
42037;DHT22;30340;52.004;5.908;2023-07-02T11:37:44;22.60;44.10
42037;DHT22;30340;52.004;5.908;2023-07-02T11:40:11;22.80;44.00
42037;DHT22;30340;52.004;5.908;2023-07-02T11:42:37;23.00;43.80
42037;DHT22;30340;52.004;5.908;2023-07-02T11:45:03;23.20;43.80
42037;DHT22;30340;52.004;5.908;2023-07-02T11:47:29;23.20;43.00
42037;DHT22;30340;52.004;5.908;2023-07-02T11:49:54;23.30;43.00
42037;DHT22;30340;52.004;5.908;2023-07-02T11:52:21;23.40;42.80
42037;DHT22;30340;52.004;5.908;2023-07-02T11:54:47;23.60;42.60
42037;DHT22;30340;52.004;5.908;2023-07-02T11:57:12;23.70;42.80
42037;DHT22;30340;52.004;5.908;2023-07-02T11:59:38;23.90;42.60
42037;DHT22;30340;52.004;5.908;2023-07-02T12:02:04;24.20;42.50
42037;DHT22;30340;52.004;5.908;2023-07-02T12:04:29;24.30;42.00
42037;DHT22;30340;52.004;5.908;2023-07-02T12:06:55;24.30;41.50
42037;DHT22;30340;52.004;5.908;2023-07-02T12:09:21;24.40;41.20
42037;DHT22;30340;52.004;5.908;2023-07-02T12:11:46;24.60;40.90
42037;DHT22;30340;52.004;5.908;2023-07-02T12:14:12;24.80;40.50
42037;DHT22;30340;52.004;5.908;2023-07-02T12:16:38;24.80;39.70
42037;DHT22;30340;52.004;5.908;2023-07-02T12:19:04;24.60;39.60
42037;DHT22;30340;52.004;5.908;2023-07-02T12:21:29;24.40;40.10
42037;DHT22;30340;52.004;5.908;2023-07-02T12:23:55;24.30;40.50
42037;DHT22;30340;52.004;5.908;2023-07-02T12:26:20;24.20;39.90
42037;DHT22;30340;52.004;5.908;2023-07-02T12:28:46;24.30;40.00
42037;DHT22;30340;52.004;5.908;2023-07-02T12:31:12;24.40;40.00
42037;DHT22;30340;52.004;5.908;2023-07-02T12:33:38;24.30;39.40
42037;DHT22;30340;52.004;5.908;2023-07-02T12:36:04;24.20;39.70
42037;DHT22;30340;52.004;5.908;2023-07-02T12:38:30;24.20;40.00
42037;DHT22;30340;52.004;5.908;2023-07-02T12:40:55;24.40;39.90
42037;DHT22;30340;52.004;5.908;2023-07-02T12:43:21;24.60;39.70
42037;DHT22;30340;52.004;5.908;2023-07-02T12:45:47;24.70;39.40
42037;DHT22;30340;52.004;5.908;2023-07-02T12:48:13;24.50;38.60
42037;DHT22;30340;52.004;5.908;2023-07-02T12:50:38;24.30;39.10
42037;DHT22;30340;52.004;5.908;2023-07-02T12:53:05;24.30;39.50
42037;DHT22;30340;52.004;5.908;2023-07-02T12:55:30;24.50;39.70
42037;DHT22;30340;52.004;5.908;2023-07-02T12:57:56;24.60;38.80
42037;DHT22;30340;52.004;5.908;2023-07-02T13:00:22;24.70;39.00
42037;DHT22;30340;52.004;5.908;2023-07-02T13:02:48;24.90;39.00
42037;DHT22;30340;52.004;5.908;2023-07-02T13:05:14;25.00;38.70
42037;DHT22;30340;52.004;5.908;2023-07-02T13:07:40;24.80;38.30
42037;DHT22;30340;52.004;5.908;2023-07-02T13:10:06;24.80;38.10
42037;DHT22;30340;52.004;5.908;2023-07-02T13:12:32;24.70;38.40
42037;DHT22;30340;52.004;5.908;2023-07-02T13:14:58;24.80;39.40
42037;DHT22;30340;52.004;5.908;2023-07-02T13:17:23;25.00;38.70
42037;DHT22;30340;52.004;5.908;2023-07-02T13:19:49;25.10;38.60
42037;DHT22;30340;52.004;5.908;2023-07-02T13:22:15;25.30;38.70
42037;DHT22;30340;52.004;5.908;2023-07-02T13:24:40;25.50;38.60
42037;DHT22;30340;52.004;5.908;2023-07-02T13:27:11;25.30;38.40
42037;DHT22;30340;52.004;5.908;2023-07-02T13:29:38;25.40;38.90
42037;DHT22;30340;52.004;5.908;2023-07-02T13:32:03;25.40;38.50
42037;DHT22;30340;52.004;5.908;2023-07-02T13:34:29;25.30;38.50
42037;DHT22;30340;52.004;5.908;2023-07-02T13:36:55;25.20;38.80
42037;DHT22;30340;52.004;5.908;2023-07-02T13:39:21;25.30;39.00
42037;DHT22;30340;52.004;5.908;2023-07-02T13:41:46;25.30;38.90
42037;DHT22;30340;52.004;5.908;2023-07-02T13:44:12;25.30;39.10
42037;DHT22;30340;52.004;5.908;2023-07-02T13:46:37;25.30;39.80
42037;DHT22;30340;52.004;5.908;2023-07-02T13:49:03;25.30;39.80
42037;DHT22;30340;52.004;5.908;2023-07-02T13:51:29;25.20;39.90
42037;DHT22;30340;52.004;5.908;2023-07-02T13:53:54;25.00;39.60
42037;DHT22;30340;52.004;5.908;2023-07-02T13:56:20;25.00;39.80
42037;DHT22;30340;52.004;5.908;2023-07-02T14:01:22;24.70;39.90
42037;DHT22;30340;52.004;5.908;2023-07-02T14:03:48;24.60;40.40
42037;DHT22;30340;52.004;5.908;2023-07-02T14:06:14;24.60;40.40
42037;DHT22;30340;52.004;5.908;2023-07-02T14:08:41;24.40;40.40
42037;DHT22;30340;52.004;5.908;2023-07-02T14:11:06;24.20;40.70
42037;DHT22;30340;52.004;5.908;2023-07-02T14:13:32;24.10;41.20
42037;DHT22;30340;52.004;5.908;2023-07-02T14:15:58;24.10;41.60
42037;DHT22;30340;52.004;5.908;2023-07-02T14:18:24;24.30;41.80
42037;DHT22;30340;52.004;5.908;2023-07-02T14:20:49;24.20;41.80
42037;DHT22;30340;52.004;5.908;2023-07-02T14:23:15;24.30;42.10
42037;DHT22;30340;52.004;5.908;2023-07-02T14:25:41;24.60;42.00
42037;DHT22;30340;52.004;5.908;2023-07-02T14:28:07;24.60;41.60
42037;DHT22;30340;52.004;5.908;2023-07-02T14:30:32;24.50;41.70
42037;DHT22;30340;52.004;5.908;2023-07-02T14:32:58;24.30;41.60
42037;DHT22;30340;52.004;5.908;2023-07-02T14:35:23;24.20;41.80
42037;DHT22;30340;52.004;5.908;2023-07-02T14:37:54;24.20;42.00
42037;DHT22;30340;52.004;5.908;2023-07-02T14:40:20;24.10;41.90
42037;DHT22;30340;52.004;5.908;2023-07-02T14:42:46;24.00;42.10
42037;DHT22;30340;52.004;5.908;2023-07-02T14:45:11;24.00;42.50
42037;DHT22;30340;52.004;5.908;2023-07-02T14:47:37;24.00;42.30
42037;DHT22;30340;52.004;5.908;2023-07-02T14:50:04;24.10;41.90
42037;DHT22;30340;52.004;5.908;2023-07-02T14:52:30;24.00;42.20
42037;DHT22;30340;52.004;5.908;2023-07-02T14:54:56;23.90;42.20
42037;DHT22;30340;52.004;5.908;2023-07-02T14:57:25;24.00;42.50
42037;DHT22;30340;52.004;5.908;2023-07-02T14:59:50;24.00;42.20
42037;DHT22;30340;52.004;5.908;2023-07-02T15:02:17;24.00;41.50
42037;DHT22;30340;52.004;5.908;2023-07-02T15:07:53;24.20;40.40
42037;DHT22;30340;52.004;5.908;2023-07-02T15:10:19;24.40;40.20
42037;DHT22;30340;52.004;5.908;2023-07-02T15:12:45;24.30;40.60
42037;DHT22;30340;52.004;5.908;2023-07-02T15:15:11;24.30;39.90
42037;DHT22;30340;52.004;5.908;2023-07-02T15:17:38;24.30;39.80
42037;DHT22;30340;52.004;5.908;2023-07-02T15:20:04;24.30;39.50
42037;DHT22;30340;52.004;5.908;2023-07-02T15:22:30;24.30;39.50
42037;DHT22;30340;52.004;5.908;2023-07-02T15:24:55;24.30;39.40
42037;DHT22;30340;52.004;5.908;2023-07-02T15:27:21;24.50;39.30
42037;DHT22;30340;52.004;5.908;2023-07-02T15:29:46;24.60;39.40
42037;DHT22;30340;52.004;5.908;2023-07-02T15:32:12;24.70;39.10
42037;DHT22;30340;52.004;5.908;2023-07-02T15:34:38;24.60;38.30